Time;durP1;ratioP1;P1;durP2;ratioP2;P2;SDS_P1;SDS_P2;PMS_P1;PMS_P2;Temp;Humidity;BMP_temperature;BMP_pressure;BME280_temperature;BME280_humidity;BME280_pressure;Samples;Min_cycle;Max_cycle;Signal;HPM_P1;HPM_P2
2022/08/12 00:43:43;;;;;;;3.30;3.10;;;24.10;44.10;;;;;;5083978;28;20471;-47
2022/08/12 00:48:56;;;;;;;5.00;3.00;;;24.00;43.90;;;;;;5084423;28;20466;-47
2022/08/12 00:52:04;;;;;;;4.20;2.90;;;24.00;43.90;;;;;;5083103;28;20492;-47
2022/08/12 00:54:11;;;;;;;3.57;3.10;;;23.90;44.50;;;;;;5081301;28;20450;-48
2022/08/12 00:56:38;;;;;;;3.13;2.93;;;23.90;44.60;;;;;;5067076;28;20475;-47
2022/08/12 00:59:07;;;;;;;3.53;3.00;;;24.00;43.90;;;;;;5083502;28;20800;-47
2022/08/12 01:01:35;;;;;;;4.97;3.23;;;24.00;44.40;;;;;;5050379;28;20856;-47
2022/08/12 01:13:00;;;;;;;3.57;3.10;;;23.80;44.80;;;;;;5085596;28;20549;-47
2022/08/12 01:15:48;;;;;;;3.20;2.80;;;23.70;43.90;;;;;;5088420;28;20995;-48
2022/08/12 01:18:16;;;;;;;4.17;2.77;;;23.70;45.10;;;;;;5084887;28;20456;-47
2022/08/12 01:21:02;;;;;;;4.37;3.33;;;23.60;44.70;;;;;;5086323;28;20473;-47
2022/08/12 01:23:40;;;;;;;4.20;3.00;;;23.50;45.60;;;;;;5084718;28;20530;-47
2022/08/12 01:26:10;;;;;;;4.50;3.67;;;23.60;45.00;;;;;;5062324;28;20589;-47
2022/08/12 01:28:39;;;;;;;3.40;3.10;;;23.70;44.60;;;;;;5066995;28;20466;-47
2022/08/12 01:31:07;;;;;;;5.33;3.73;;;23.80;43.70;;;;;;5086759;28;20898;-48
2022/08/12 01:33:43;;;;;;;3.20;2.90;;;23.90;43.40;;;;;;5087946;28;20988;-47
2022/08/12 01:36:13;;;;;;;3.53;3.23;;;23.80;43.20;;;;;;5086183;28;20456;-47
2022/08/12 01:38:42;;;;;;;3.23;3.00;;;23.80;43.20;;;;;;5088440;28;20448;-47
2022/08/12 01:41:12;;;;;;;6.40;3.33;;;23.80;43.20;;;;;;5085902;28;21214;-47
2022/08/12 01:43:40;;;;;;;4.57;3.10;;;23.80;43.10;;;;;;5084245;28;20510;-47
2022/08/12 01:46:07;;;;;;;5.63;3.40;;;23.90;43.00;;;;;;5059226;28;22033;-48
2022/08/12 01:49:06;;;;;;;3.50;2.93;;;23.90;42.90;;;;;;5084785;28;20467;-47
2022/08/12 01:51:45;;;;;;;3.27;2.93;;;23.80;43.10;;;;;;5084068;28;20491;-47
2022/08/12 01:54:44;;;;;;;2.90;2.70;;;23.80;43.40;;;;;;5088187;28;20449;-47
2022/08/12 01:57:43;;;;;;;3.40;2.60;;;23.70;43.60;;;;;;5087437;28;20489;-47
2022/08/12 02:00:47;;;;;;;4.80;3.07;;;23.70;43.60;;;;;;5068150;28;20957;-47
2022/08/12 02:13:13;;;;;;;3.90;3.60;;;23.70;43.80;;;;;;5087854;28;20451;-45
2022/08/12 02:16:01;;;;;;;6.13;3.60;;;23.60;43.60;;;;;;5086175;28;20460;-45
2022/08/12 02:18:43;;;;;;;3.60;3.30;;;23.60;43.70;;;;;;5086294;28;21347;-45
2022/08/12 02:21:21;;;;;;;3.43;3.13;;;23.60;43.80;;;;;;5060384;28;20461;-45
2022/08/12 02:23:49;;;;;;;3.70;3.20;;;23.60;43.90;;;;;;5082896;28;20460;-45
2022/08/12 02:26:17;;;;;;;4.33;3.13;;;23.50;44.00;;;;;;5083369;28;20468;-45
2022/08/12 02:28:44;;;;;;;3.23;2.93;;;23.50;44.30;;;;;;5086091;28;20448;-45
2022/08/12 02:31:13;;;;;;;3.50;3.20;;;23.50;44.30;;;;;;5087169;28;20496;-45
2022/08/12 02:33:41;;;;;;;3.70;3.40;;;23.40;44.30;;;;;;5084952;28;20452;-45
2022/08/12 02:36:08;;;;;;;4.10;3.30;;;23.40;44.50;;;;;;5085102;28;20463;-45
2022/08/12 02:38:36;;;;;;;4.70;4.00;;;23.40;44.60;;;;;;5087359;28;20464;-45
2022/08/12 02:41:07;;;;;;;3.57;3.07;;;23.30;44.80;;;;;;5085834;28;20729;-45
2022/08/12 02:43:49;;;;;;;2.93;2.73;;;23.30;44.90;;;;;;5081083;28;20459;-45
2022/08/12 02:46:30;;;;;;;6.57;3.60;;;23.40;45.10;;;;;;5085592;28;20832;-44
2022/08/12 02:49:02;;;;;;;3.60;3.20;;;23.40;44.60;;;;;;5079147;28;20822;-45
2022/08/12 02:51:34;;;;;;;4.23;3.53;;;23.40;44.60;;;;;;5085646;28;20488;-44
2022/08/12 02:54:03;;;;;;;3.63;3.33;;;23.40;44.70;;;;;;5085941;28;20456;-44
2022/08/12 02:56:39;;;;;;;3.70;3.40;;;23.40;45.80;;;;;;5069501;28;20456;-44
2022/08/12 02:59:15;;;;;;;6.23;3.40;;;23.40;45.70;;;;;;5085394;28;20520;-44
2022/08/12 03:01:49;;;;;;;3.40;3.10;;;23.40;45.70;;;;;;5084759;28;20468;-44
2022/08/12 03:04:28;;;;;;;3.43;3.13;;;23.30;46.00;;;;;;5083405;28;21175;-44
2022/08/12 03:07:15;;;;;;;4.20;2.97;;;23.30;46.10;;;;;;5071723;28;20471;-44
2022/08/12 03:09:50;;;;;;;5.40;2.70;;;23.30;46.20;;;;;;5084176;28;20466;-45
2022/08/12 03:12:34;;;;;;;3.60;3.30;;;23.30;46.20;;;;;;5074413;28;20484;-44
2022/08/12 03:15:17;;;;;;;3.50;3.20;;;23.20;46.10;;;;;;5071929;28;20501;-45
2022/08/12 03:17:56;;;;;;;3.40;3.10;;;23.30;46.30;;;;;;5084008;28;20459;-44
2022/08/12 03:20:44;;;;;;;4.80;3.60;;;23.20;46.20;;;;;;5074276;28;20468;-44
2022/08/12 03:23:14;;;;;;;3.20;3.00;;;23.10;46.40;;;;;;5066405;28;20954;-44
2022/08/12 03:26:00;;;;;;;3.60;2.90;;;23.10;46.50;;;;;;5070086;28;20839;-44
2022/08/12 03:28:52;;;;;;;3.17;2.90;;;23.00;46.50;;;;;;5085488;28;20464;-45
2022/08/12 03:31:28;;;;;;;3.40;3.00;;;23.00;46.70;;;;;;5069421;28;20491;-44
2022/08/12 03:34:08;;;;;;;4.27;3.27;;;22.90;46.80;;;;;;5081283;28;20459;-45
2022/08/12 03:36:39;;;;;;;3.53;3.00;;;22.90;46.90;;;;;;5068782;28;20528;-48
2022/08/12 03:39:40;;;;;;;3.90;3.33;;;22.90;46.30;;;;;;5082703;28;20471;-48
2022/08/12 04:02:13;;;;;;;4.10;3.70;;;22.50;47.60;;;;;;5084393;28;20459;-48
2022/08/12 04:04:43;;;;;;;5.53;3.57;;;22.40;48.00;;;;;;5083024;28;20463;-48
2022/08/12 04:07:12;;;;;;;3.60;3.30;;;22.30;48.30;;;;;;5073767;28;20467;-48
2022/08/12 04:09:41;;;;;;;5.43;3.60;;;22.20;48.20;;;;;;5068255;28;20464;-48
2022/08/12 04:14:59;;;;;;;3.90;3.57;;;22.20;48.50;;;;;;5083791;28;20457;-48
2022/08/12 04:17:26;;;;;;;3.83;3.53;;;22.00;49.00;;;;;;5067354;28;20456;-48
2022/08/12 04:19:55;;;;;;;3.13;2.90;;;22.00;49.10;;;;;;5083348;28;20462;-47
2022/08/12 04:22:25;;;;;;;6.77;3.43;;;22.00;49.00;;;;;;5082138;28;20468;-48
2022/08/12 04:24:53;;;;;;;5.53;3.30;;;22.00;49.20;;;;;;5082731;28;20469;-47
2022/08/12 04:27:19;;;;;;;4.17;3.40;;;22.00;49.30;;;;;;5070420;28;20461;-48
2022/08/12 04:29:46;;;;;;;4.10;3.47;;;21.90;49.50;;;;;;5083740;28;20464;-48
2022/08/12 04:32:34;;;;;;;4.10;3.70;;;21.90;49.90;;;;;;5069857;28;20544;-48
2022/08/12 04:35:06;;;;;;;3.63;3.17;;;21.80;49.70;;;;;;5079264;28;20683;-48
2022/08/12 04:37:33;;;;;;;6.23;4.27;;;21.70;50.30;;;;;;5065668;28;20484;-48
2022/08/12 04:40:25;;;;;;;4.77;3.80;;;21.70;50.00;;;;;;5062919;28;20961;-48
2022/08/12 04:42:54;;;;;;;3.73;3.43;;;21.60;50.40;;;;;;5081209;28;20465;-48
2022/08/12 04:45:21;;;;;;;5.00;3.93;;;21.50;51.00;;;;;;5068302;28;20495;-48
2022/08/12 04:47:48;;;;;;;4.10;3.70;;;21.50;51.10;;;;;;5082471;28;20560;-47
2022/08/12 04:50:16;;;;;;;4.97;3.50;;;21.50;50.90;;;;;;5071807;28;20496;-48
2022/08/12 04:53:05;;;;;;;3.97;3.20;;;21.50;51.20;;;;;;5084974;28;20544;-48
2022/08/12 04:55:33;;;;;;;6.50;4.00;;;21.40;51.20;;;;;;5085504;28;20480;-48
2022/08/12 04:58:00;;;;;;;5.23;4.40;;;21.40;51.50;;;;;;5083585;28;20481;-48
2022/08/12 05:00:27;;;;;;;4.10;3.70;;;21.40;51.90;;;;;;5067388;28;21480;-48
2022/08/12 05:02:54;;;;;;;4.90;3.53;;;21.40;51.90;;;;;;5084943;28;20478;-47
2022/08/12 05:05:22;;;;;;;3.40;3.10;;;21.40;52.30;;;;;;5079055;28;20903;-48
2022/08/12 05:07:50;;;;;;;5.00;3.40;;;21.40;52.40;;;;;;5079863;28;20467;-48
2022/08/12 05:10:21;;;;;;;4.03;3.60;;;21.30;52.10;;;;;;5082639;28;21682;-48
2022/08/12 05:13:04;;;;;;;3.60;3.30;;;21.30;52.40;;;;;;5066696;28;21533;-47
2022/08/12 05:15:31;;;;;;;4.20;3.20;;;21.30;52.50;;;;;;5082447;28;20467;-48
2022/08/12 05:17:57;;;;;;;3.80;3.37;;;21.50;52.00;;;;;;5087609;28;20460;-48
2022/08/12 05:20:27;;;;;;;6.93;3.00;;;21.50;50.40;;;;;;5063415;28;20461;-48
2022/08/12 05:23:12;;;;;;;4.60;3.10;;;21.60;51.50;;;;;;5077231;28;20469;-48
2022/08/12 05:25:41;;;;;;;3.93;3.37;;;21.70;51.10;;;;;;5087919;28;20491;-47
2022/08/12 05:28:10;;;;;;;3.87;3.57;;;21.80;51.00;;;;;;5084009;28;20461;-48
2022/08/12 05:30:36;;;;;;;6.47;3.23;;;21.90;49.80;;;;;;5085438;28;20460;-47
2022/08/12 05:33:05;;;;;;;5.80;3.23;;;22.00;49.40;;;;;;5084862;28;21000;-45
2022/08/12 05:35:40;;;;;;;3.40;3.10;;;22.10;49.50;;;;;;5082666;28;20460;-45
2022/08/12 05:41:03;;;;;;;3.90;3.10;;;22.20;48.60;;;;;;5087648;28;20826;-45
2022/08/12 05:43:32;;;;;;;3.27;2.80;;;22.30;49.60;;;;;;5069128;28;20459;-45
2022/08/12 05:45:59;;;;;;;3.87;3.50;;;22.40;50.10;;;;;;5068895;28;20453;-45
2022/08/12 05:48:26;;;;;;;3.80;3.50;;;22.50;49.60;;;;;;5067823;28;20445;-45
2022/08/12 05:50:53;;;;;;;4.47;3.40;;;22.50;48.00;;;;;;5087102;28;20453;-45
2022/08/12 05:53:19;;;;;;;5.83;3.10;;;22.60;49.20;;;;;;5086573;28;20460;-45
2022/08/12 05:55:46;;;;;;;3.00;2.77;;;22.60;49.40;;;;;;5078413;28;20456;-45
2022/08/12 05:58:13;;;;;;;3.03;2.70;;;22.70;49.20;;;;;;5084328;28;20484;-45
2022/08/12 06:00:41;;;;;;;3.23;2.90;;;22.80;48.20;;;;;;5089395;28;20445;-44
2022/08/12 06:03:07;;;;;;;6.33;3.40;;;22.90;48.40;;;;;;5089814;28;20460;-45
2022/08/12 06:05:39;;;;;;;3.40;3.10;;;22.90;47.50;;;;;;5087377;28;20548;-47
2022/08/12 06:08:20;;;;;;;3.90;2.57;;;22.90;47.50;;;;;;5087102;28;20467;-44
2022/08/12 06:10:48;;;;;;;3.83;2.90;;;23.10;47.30;;;;;;5069359;28;20464;-44
2022/08/12 06:13:15;;;;;;;5.70;2.97;;;23.10;46.70;;;;;;5082574;28;20541;-45
2022/08/12 06:16:02;;;;;;;4.07;3.13;;;23.10;46.80;;;;;;5080466;28;20825;-47
2022/08/12 06:18:30;;;;;;;3.60;3.30;;;23.10;46.70;;;;;;5063687;28;21013;-48
2022/08/12 06:20:59;;;;;;;3.63;2.93;;;23.10;46.70;;;;;;5088103;28;20833;-45
2022/08/12 06:23:28;;;;;;;4.60;2.77;;;23.20;46.70;;;;;;5084805;28;20453;-45
2022/08/12 06:25:56;;;;;;;3.63;3.33;;;23.20;46.70;;;;;;5073364;28;20444;-45
2022/08/12 06:28:24;;;;;;;6.03;3.70;;;23.30;46.50;;;;;;5086950;28;20460;-45
2022/08/12 06:30:52;;;;;;;2.97;2.77;;;23.40;46.30;;;;;;5086431;28;20813;-45
2022/08/12 06:33:43;;;;;;;6.40;3.50;;;23.40;46.10;;;;;;5089325;28;20847;-45
2022/08/12 06:36:26;;;;;;;2.93;2.63;;;23.40;46.20;;;;;;5085844;28;20471;-45
2022/08/12 06:38:55;;;;;;;5.50;3.47;;;23.50;46.00;;;;;;5087840;28;20448;-45
2022/08/12 06:44:27;;;;;;;4.30;3.33;;;23.90;45.80;;;;;;5087079;28;20483;-45
2022/08/12 06:46:54;;;;;;;4.03;3.47;;;23.90;45.80;;;;;;5088933;28;20444;-45
2022/08/12 06:49:23;;;;;;;4.10;2.30;;;24.00;45.60;;;;;;5086612;28;20548;-45
2022/08/12 06:51:52;;;;;;;6.10;2.93;;;24.00;45.50;;;;;;5085383;28;20861;-45
2022/08/12 06:54:24;;;;;;;4.20;2.90;;;24.10;45.30;;;;;;5084526;28;20456;-45
2022/08/12 06:56:59;;;;;;;5.43;3.10;;;24.10;45.30;;;;;;5084291;28;20501;-45
2022/08/12 06:59:47;;;;;;;4.40;2.90;;;24.20;45.00;;;;;;5085555;28;20823;-46
2022/08/12 07:02:14;;;;;;;5.30;2.87;;;24.20;45.00;;;;;;5086230;28;20456;-45
2022/08/12 07:04:40;;;;;;;4.77;3.40;;;24.20;45.00;;;;;;5073171;28;20456;-45
2022/08/12 07:07:08;;;;;;;7.37;3.80;;;24.30;45.10;;;;;;5071042;28;20468;-45
2022/08/12 07:09:37;;;;;;;3.73;2.60;;;24.30;44.80;;;;;;5069937;28;20539;-45
2022/08/12 07:12:26;;;;;;;3.00;2.70;;;24.40;44.80;;;;;;5087964;28;20476;-45
2022/08/12 07:14:55;;;;;;;2.63;2.43;;;24.40;44.10;;;;;;5081453;28;20990;-44
2022/08/12 07:17:22;;;;;;;3.70;3.40;;;24.40;44.20;;;;;;5084040;28;20472;-45
2022/08/12 07:19:50;;;;;;;5.10;3.10;;;24.40;43.80;;;;;;5071114;28;20448;-44
2022/08/12 07:22:17;;;;;;;4.70;3.10;;;24.50;43.80;;;;;;5085669;28;20475;-45
2022/08/12 07:25:29;;;;;;;3.30;2.67;;;24.60;44.00;;;;;;5086810;28;20471;-44
2022/08/12 07:27:37;;;;;;;3.80;3.23;;;24.70;43.80;;;;;;5087221;28;20452;-45
2022/08/12 07:30:06;;;;;;;3.13;2.83;;;24.80;43.90;;;;;;5085704;28;20448;-44
2022/08/12 07:32:32;;;;;;;3.83;2.33;;;24.80;43.40;;;;;;5064087;28;20561;-44
2022/08/12 07:35:02;;;;;;;4.13;2.50;;;25.00;43.40;;;;;;5085523;28;20452;-44
2022/08/12 07:37:30;;;;;;;4.50;2.83;;;25.00;43.40;;;;;;5080391;28;20877;-45
2022/08/12 07:39:57;;;;;;;3.97;2.77;;;25.10;42.90;;;;;;5073215;28;20455;-44
2022/08/12 07:42:27;;;;;;;3.40;3.10;;;25.10;43.10;;;;;;5085824;28;20448;-45
2022/08/12 07:44:55;;;;;;;4.40;3.03;;;25.20;42.90;;;;;;5076396;28;20937;-44
2022/08/12 07:47:22;;;;;;;3.10;2.80;;;25.30;42.70;;;;;;5088145;28;20821;-44
2022/08/12 07:49:49;;;;;;;3.03;2.27;;;25.30;42.50;;;;;;5070503;28;20459;-44
2022/08/12 07:52:40;;;;;;;4.37;2.47;;;25.30;42.90;;;;;;5069991;28;20902;-44
2022/08/12 07:55:07;;;;;;;5.80;2.90;;;25.50;42.60;;;;;;5067017;28;20456;-44
2022/08/12 07:57:46;;;;;;;3.23;2.93;;;25.60;42.10;;;;;;5066528;28;20484;-44
2022/08/12 08:00:14;;;;;;;9.87;2.70;;;25.80;42.40;;;;;;5085221;28;20792;-44
2022/08/12 08:02:40;;;;;;;2.37;2.13;;;25.80;42.20;;;;;;5086438;28;20451;-44
2022/08/12 08:05:08;;;;;;;3.47;3.17;;;26.00;41.90;;;;;;5087144;28;20439;-44
2022/08/12 08:07:34;;;;;;;6.73;2.90;;;26.10;41.80;;;;;;5084759;28;20994;-44
2022/08/12 08:10:06;;;;;;;10.40;2.80;;;26.20;41.80;;;;;;5085222;28;20960;-44
2022/08/12 08:15:19;;;;;;;4.00;2.53;;;26.50;41.70;;;;;;5073324;28;20455;-44
2022/08/12 08:17:56;;;;;;;4.07;2.47;;;26.60;40.80;;;;;;5086053;28;20440;-44
2022/08/12 08:20:27;;;;;;;2.33;2.13;;;26.80;40.30;;;;;;5086715;28;20448;-44
2022/08/12 08:22:59;;;;;;;4.37;2.53;;;26.90;40.30;;;;;;5086224;28;20460;-44
2022/08/12 08:25:30;;;;;;;4.63;2.40;;;27.10;39.80;;;;;;5085918;28;20468;-44
2022/08/12 08:28:12;;;;;;;3.40;2.90;;;27.20;39.80;;;;;;5083246;28;20205;-44
2022/08/12 08:30:42;;;;;;;2.60;2.23;;;27.20;39.60;;;;;;5070386;28;20448;-44
2022/08/12 08:33:11;;;;;;;4.47;2.10;;;27.30;39.60;;;;;;5087087;28;20472;-44
2022/08/12 08:35:59;;;;;;;3.73;1.80;;;27.50;39.20;;;;;;5074099;28;20440;-44
2022/08/12 08:38:28;;;;;;;2.37;2.17;;;27.50;38.80;;;;;;5086542;28;20507;-44
2022/08/12 08:44:09;;;;;;;3.07;2.47;;;27.80;38.40;;;;;;5087169;28;20949;-45
2022/08/12 08:46:43;;;;;;;2.93;2.73;;;27.90;38.50;;;;;;5086966;28;20448;-44
2022/08/12 08:49:11;;;;;;;4.60;2.33;;;28.10;38.40;;;;;;5087502;28;20822;-45
2022/08/12 08:51:38;;;;;;;2.20;1.90;;;28.10;37.80;;;;;;5073073;28;20456;-45
2022/08/12 08:54:07;;;;;;;3.23;2.70;;;28.20;37.80;;;;;;5081804;28;20652;-45
2022/08/12 08:56:43;;;;;;;2.50;2.30;;;28.30;37.20;;;;;;5085355;28;20224;-45
2022/08/12 08:59:11;;;;;;;3.80;2.20;;;28.40;37.40;;;;;;5076229;28;20709;-45
2022/08/12 09:01:39;;;;;;;2.27;2.10;;;28.40;37.30;;;;;;5082673;28;20210;-45
2022/08/12 09:04:07;;;;;;;2.80;2.30;;;28.50;37.20;;;;;;5078821;28;20973;-45
2022/08/12 09:06:58;;;;;;;6.07;2.50;;;28.50;37.00;;;;;;5063914;28;20256;-45
2022/08/12 09:09:26;;;;;;;2.40;2.20;;;28.60;37.00;;;;;;5070755;28;20616;-44
2022/08/12 09:14:53;;;;;;;2.30;2.10;;;28.60;36.70;;;;;;5083945;28;20204;-45
2022/08/12 09:17:21;;;;;;;2.63;2.40;;;28.80;36.70;;;;;;5084687;28;20671;-45
2022/08/12 09:19:48;;;;;;;5.57;2.30;;;28.90;36.20;;;;;;5082014;28;20606;-45
2022/08/12 09:22:23;;;;;;;2.90;2.07;;;29.00;35.80;;;;;;5081917;28;20209;-44
2022/08/12 09:24:55;;;;;;;4.10;2.40;;;29.10;36.30;;;;;;5072049;28;20579;-45
2022/08/12 09:27:25;;;;;;;2.07;1.87;;;29.20;35.70;;;;;;5082440;28;20541;-45
2022/08/12 09:30:14;;;;;;;3.07;2.53;;;29.20;35.30;;;;;;5078740;28;20594;-45
2022/08/12 09:32:50;;;;;;;3.70;2.57;;;29.10;34.60;;;;;;5086271;28;20246;-44
2022/08/12 09:35:42;;;;;;;2.47;2.27;;;29.20;34.60;;;;;;5084852;28;20681;-44
2022/08/12 09:38:15;;;;;;;1.70;1.60;;;29.10;34.80;;;;;;5087776;28;20218;-45
2022/08/12 09:40:56;;;;;;;3.20;1.90;;;29.10;34.90;;;;;;5052387;28;20206;-45
2022/08/12 09:46:51;;;;;;;2.90;2.10;;;29.30;34.10;;;;;;5087742;28;20274;-45
2022/08/12 09:49:18;;;;;;;2.33;2.23;;;29.50;34.00;;;;;;5088591;28;20217;-45
2022/08/12 09:51:53;;;;;;;2.25;2.05;;;29.60;33.60;;;;;;5087548;28;20316;-45
2022/08/12 09:54:20;;;;;;;2.58;2.38;;;29.60;33.80;;;;;;5085859;28;20207;-45
2022/08/12 09:57:06;;;;;;;2.67;2.03;;;29.70;33.80;;;;;;5086617;28;20244;-45
2022/08/12 09:59:53;;;;;;;2.00;1.90;;;29.90;33.50;;;;;;5077735;28;20206;-45
2022/08/12 10:03:01;;;;;;;2.33;2.10;;;29.80;33.20;;;;;;5072521;28;20206;-45
2022/08/12 10:05:35;;;;;;;2.58;2.33;;;30.00;33.30;;;;;;5087492;28;20198;-45
2022/08/12 10:08:26;;;;;;;2.20;2.00;;;30.20;33.50;;;;;;5076276;28;20655;-45
2022/08/12 10:13:47;;;;;;;2.85;2.65;;;30.40;33.30;;;;;;5087792;28;20239;-45
2022/08/12 10:16:16;;;;;;;3.10;2.80;;;30.70;32.90;;;;;;5084806;28;20728;-45
2022/08/12 10:18:53;;;;;;;2.50;2.28;;;30.50;33.20;;;;;;5088492;28;20202;-45
2022/08/12 10:21:37;;;;;;;2.92;2.28;;;30.70;32.90;;;;;;5084737;28;20210;-46
2022/08/12 10:24:17;;;;;;;3.33;2.58;;;30.70;31.60;;;;;;5084641;28;20306;-45
2022/08/12 10:29:43;;;;;;;2.08;1.88;;;30.20;31.70;;;;;;5087496;28;20202;-46
2022/08/12 10:32:29;;;;;;;3.22;1.70;;;30.30;31.80;;;;;;5084287;28;20234;-45
2022/08/12 10:35:13;;;;;;;3.70;1.95;;;30.30;31.90;;;;;;5083682;28;20296;-46
2022/08/12 10:37:40;;;;;;;2.33;1.92;;;30.10;32.20;;;;;;5087570;28;20209;-45
2022/08/12 10:40:29;;;;;;;1.90;1.80;;;30.00;32.50;;;;;;5086721;28;20203;-46
2022/08/12 10:45:55;;;;;;;3.40;1.77;;;29.90;32.30;;;;;;5068511;28;20214;-45
2022/08/12 10:48:24;;;;;;;2.08;1.88;;;29.80;32.00;;;;;;5055828;28;20292;-45
2022/08/12 10:51:04;;;;;;;4.07;1.80;;;30.00;32.30;;;;;;5087322;28;20202;-45
2022/08/12 10:53:54;;;;;;;2.00;1.90;;;30.00;32.30;;;;;;5084507;28;20222;-45
2022/08/12 10:56:30;;;;;;;3.67;1.85;;;29.90;32.10;;;;;;5084398;28;20697;-45
2022/08/12 10:59:03;;;;;;;3.70;1.93;;;29.60;32.60;;;;;;5082423;28;20344;-45
2022/08/12 11:01:32;;;;;;;3.78;1.90;;;29.50;32.80;;;;;;5081997;28;20204;-45
2022/08/12 11:04:19;;;;;;;2.63;1.97;;;29.40;33.10;;;;;;5062738;28;20235;-45
2022/08/12 11:07:05;;;;;;;1.70;1.60;;;29.40;32.60;;;;;;5082130;28;20699;-45
2022/08/12 11:09:53;;;;;;;1.93;1.70;;;29.40;33.00;;;;;;5084176;28;20206;-45
2022/08/12 11:12:28;;;;;;;5.47;1.98;;;29.40;32.90;;;;;;5086158;28;20212;-45
2022/08/12 11:15:16;;;;;;;1.97;1.70;;;29.40;33.40;;;;;;5052988;28;20206;-45
2022/08/12 11:17:47;;;;;;;3.45;2.25;;;29.30;33.20;;;;;;5081703;28;20206;-45
2022/08/12 11:20:22;;;;;;;2.75;2.20;;;29.40;33.20;;;;;;5080191;28;20225;-45
2022/08/12 11:23:00;;;;;;;2.97;2.00;;;29.30;33.60;;;;;;5063619;28;20202;-45
2022/08/12 11:25:30;;;;;;;2.77;2.10;;;29.20;33.40;;;;;;5080531;28;20260;-45
2022/08/12 11:28:18;;;;;;;2.38;2.03;;;29.10;33.60;;;;;;5081705;28;20734;-45
2022/08/12 11:31:02;;;;;;;3.40;2.00;;;29.10;33.90;;;;;;5082372;28;20210;-46
2022/08/12 11:33:29;;;;;;;3.37;2.17;;;29.20;33.50;;;;;;5048422;28;20224;-45
2022/08/12 11:36:17;;;;;;;2.13;1.93;;;29.30;33.70;;;;;;5073006;28;20932;-45
2022/08/12 11:38:48;;;;;;;1.87;1.77;;;29.30;33.50;;;;;;5084326;28;20529;-46
2022/08/12 11:41:20;;;;;;;2.13;2.03;;;29.30;33.90;;;;;;5086302;28;20198;-46
2022/08/12 11:44:02;;;;;;;2.13;1.93;;;29.40;33.80;;;;;;5086909;28;20210;-46
2022/08/12 11:46:50;;;;;;;3.80;2.13;;;29.30;33.80;;;;;;5065166;28;20209;-45
2022/08/12 11:49:21;;;;;;;2.43;2.23;;;29.10;33.80;;;;;;5084729;28;20219;-46
2022/08/12 11:51:59;;;;;;;2.80;2.00;;;29.20;33.60;;;;;;5070371;28;20205;-45
2022/08/12 11:54:26;;;;;;;1.83;1.50;;;29.10;34.20;;;;;;5062887;28;20230;-45
2022/08/12 11:56:58;;;;;;;5.50;2.47;;;29.20;34.10;;;;;;5080338;28;20314;-45
2022/08/12 11:59:28;;;;;;;4.87;2.23;;;29.10;34.10;;;;;;5076348;28;20301;-45
2022/08/12 12:02:15;;;;;;;3.80;2.43;;;29.00;34.60;;;;;;5075455;28;20240;-45
2022/08/12 12:04:46;;;;;;;2.40;1.90;;;29.00;34.60;;;;;;5066715;28;20201;-45
2022/08/12 12:07:21;;;;;;;2.33;2.13;;;29.10;34.00;;;;;;5078863;28;20659;-45
2022/08/12 12:09:48;;;;;;;2.30;2.10;;;29.10;33.80;;;;;;5082468;28;20210;-45
2022/08/12 12:12:18;;;;;;;3.60;2.33;;;29.10;33.50;;;;;;5086144;28;20228;-45
2022/08/12 12:14:47;;;;;;;2.63;2.17;;;29.00;33.60;;;;;;5085827;28;20233;-45
2022/08/12 12:17:22;;;;;;;6.70;2.00;;;28.90;33.60;;;;;;5081722;28;20566;-45
2022/08/12 12:19:50;;;;;;;5.93;2.50;;;28.80;33.20;;;;;;5065915;28;20651;-45
2022/08/12 12:22:16;;;;;;;1.83;1.73;;;28.70;33.60;;;;;;5080959;28;20214;-45
2022/08/12 12:24:56;;;;;;;2.40;2.20;;;28.80;33.70;;;;;;5081802;28;20217;-45
2022/08/12 12:27:24;;;;;;;3.70;2.10;;;28.80;33.90;;;;;;5084037;28;20252;-45
2022/08/12 12:30:11;;;;;;;4.80;2.97;;;28.80;33.80;;;;;;5084496;28;20198;-45
2022/08/12 12:32:52;;;;;;;2.90;1.97;;;28.80;33.90;;;;;;5072307;28;20229;-45
2022/08/12 12:35:19;;;;;;;3.37;1.90;;;28.80;33.60;;;;;;5083708;28;20210;-45
2022/08/12 12:38:11;;;;;;;2.50;1.70;;;28.90;33.50;;;;;;5082964;28;20206;-45
2022/08/12 12:40:44;;;;;;;2.47;1.57;;;29.00;32.80;;;;;;5079792;28;20206;-45
2022/08/12 12:43:12;;;;;;;2.92;2.15;;;29.10;32.30;;;;;;5080010;28;20210;-45
2022/08/12 12:45:40;;;;;;;2.20;2.00;;;29.20;32.40;;;;;;5079477;28;20256;-45
2022/08/12 12:48:14;;;;;;;1.55;1.45;;;29.20;32.40;;;;;;5078805;28;20261;-45
2022/08/12 12:50:43;;;;;;;2.55;1.67;;;29.20;31.80;;;;;;5087764;28;20656;-45
2022/08/12 12:53:20;;;;;;;1.90;1.70;;;29.30;32.00;;;;;;5082876;28;20229;-45
2022/08/12 12:56:13;;;;;;;2.13;1.93;;;29.20;31.70;;;;;;5083553;28;20210;-45
2022/08/12 12:58:41;;;;;;;7.10;2.33;;;29.30;32.40;;;;;;5086395;28;20224;-45
2022/08/12 13:01:12;;;;;;;2.97;1.80;;;29.30;32.50;;;;;;5082330;28;20227;-45
2022/08/12 13:03:57;;;;;;;3.47;2.40;;;29.30;32.90;;;;;;5082673;28;20584;-45
2022/08/12 13:06:30;;;;;;;2.33;2.13;;;29.30;32.70;;;;;;5079360;28;20267;-45
2022/08/12 13:09:00;;;;;;;3.67;1.80;;;29.20;32.60;;;;;;5073723;28;20214;-45
2022/08/12 13:11:32;;;;;;;2.43;2.10;;;29.10;32.90;;;;;;5089290;28;20217;-45
2022/08/12 13:14:11;;;;;;;3.20;2.00;;;29.20;32.50;;;;;;5086822;28;20228;-46
2022/08/12 13:17:02;;;;;;;2.00;1.80;;;29.30;32.40;;;;;;5088755;28;20230;-45
2022/08/12 13:19:35;;;;;;;2.40;1.47;;;29.40;32.40;;;;;;5087245;28;20288;-45
2022/08/12 13:22:16;;;;;;;3.13;1.93;;;29.40;32.20;;;;;;5085758;28;20220;-45
2022/08/12 13:24:45;;;;;;;4.10;1.70;;;29.30;32.20;;;;;;5089672;28;20210;-45
2022/08/12 13:27:19;;;;;;;4.53;2.40;;;29.30;32.70;;;;;;5086294;28;20238;-45
2022/08/12 13:29:46;;;;;;;3.15;1.80;;;29.30;32.30;;;;;;5085661;28;20681;-45
2022/08/12 13:32:14;;;;;;;4.07;2.35;;;29.30;32.10;;;;;;5084084;28;20205;-46
2022/08/12 13:34:56;;;;;;;1.95;1.48;;;29.30;31.90;;;;;;5084765;28;20328;-45
2022/08/12 13:37:30;;;;;;;2.50;2.10;;;29.30;32.30;;;;;;5084053;28;20623;-45
2022/08/12 13:40:16;;;;;;;2.10;1.50;;;29.30;32.40;;;;;;5080107;28;20210;-45
2022/08/12 13:42:45;;;;;;;2.40;1.90;;;29.30;31.80;;;;;;5084725;28;20210;-45
2022/08/12 13:45:12;;;;;;;1.55;1.45;;;29.20;30.90;;;;;;5065460;28;20215;-45
2022/08/12 13:47:54;;;;;;;1.80;1.70;;;29.40;31.10;;;;;;5072187;28;20198;-45
2022/08/12 13:50:31;;;;;;;1.83;1.40;;;29.40;30.90;;;;;;5084414;28;20430;-45
2022/08/12 13:53:00;;;;;;;4.47;1.60;;;29.40;31.00;;;;;;5063529;28;20206;-45
2022/08/12 13:55:48;;;;;;;1.50;1.40;;;29.40;30.50;;;;;;5082512;28;20211;-45
2022/08/12 13:58:25;;;;;;;3.53;1.60;;;29.30;30.80;;;;;;5084182;28;20233;-45
2022/08/12 14:00:54;;;;;;;1.45;1.35;;;29.30;31.20;;;;;;5083811;28;20671;-45
2022/08/12 14:03:22;;;;;;;1.80;1.70;;;29.30;31.50;;;;;;5083561;28;20618;-45
2022/08/12 14:05:58;;;;;;;4.50;1.53;;;29.40;31.20;;;;;;5068362;28;20205;-45
2022/08/12 14:08:27;;;;;;;1.42;1.20;;;29.50;31.20;;;;;;5062709;28;20209;-46
2022/08/12 14:11:00;;;;;;;3.27;1.50;;;29.50;31.20;;;;;;5086870;28;20209;-45
2022/08/12 14:13:29;;;;;;;1.67;1.57;;;29.40;30.40;;;;;;5087032;28;20237;-45
2022/08/12 14:16:17;;;;;;;2.40;1.60;;;29.40;30.90;;;;;;5085762;28;20687;-45
2022/08/12 14:19:04;;;;;;;1.83;1.27;;;29.40;30.80;;;;;;5074610;28;20206;-45
2022/08/12 14:21:45;;;;;;;1.48;1.38;;;29.50;31.10;;;;;;5084015;28;20741;-45
2022/08/12 14:24:26;;;;;;;4.10;1.83;;;29.40;30.60;;;;;;5084201;28;20292;-45
2022/08/12 14:26:56;;;;;;;1.83;1.58;;;29.40;30.60;;;;;;5085007;28;20334;-45
2022/08/12 14:29:29;;;;;;;5.33;1.80;;;29.30;31.00;;;;;;5055912;28;20202;-45
2022/08/12 14:32:16;;;;;;;2.42;1.70;;;29.40;30.80;;;;;;5071116;28;20206;-45
2022/08/12 14:34:45;;;;;;;2.13;1.63;;;29.50;30.50;;;;;;5083255;28;20252;-45
2022/08/12 14:37:12;;;;;;;1.67;1.47;;;29.40;30.50;;;;;;5081362;28;20202;-45
2022/08/12 14:39:59;;;;;;;2.07;1.67;;;29.40;30.60;;;;;;5084350;28;20659;-45
2022/08/12 14:42:27;;;;;;;1.73;1.57;;;29.40;31.20;;;;;;5058018;28;20198;-45
2022/08/12 14:44:56;;;;;;;1.40;1.30;;;29.40;30.80;;;;;;5084999;28;20213;-45
2022/08/12 14:47:28;;;;;;;1.60;1.50;;;29.40;31.00;;;;;;5073963;28;20209;-45
2022/08/12 14:50:02;;;;;;;1.53;1.40;;;29.40;30.80;;;;;;5084527;28;20263;-45
2022/08/12 14:52:49;;;;;;;1.50;1.40;;;29.30;31.10;;;;;;5089929;28;20206;-45
2022/08/12 14:55:38;;;;;;;4.30;1.47;;;29.30;31.10;;;;;;5088464;28;20213;-45
2022/08/12 14:58:25;;;;;;;5.83;1.80;;;29.30;31.20;;;;;;5084089;28;20221;-45
2022/08/12 15:03:38;;;;;;;1.60;1.50;;;29.20;30.90;;;;;;5087240;28;20224;-45
2022/08/12 15:06:25;;;;;;;2.33;1.73;;;29.40;31.30;;;;;;5070167;28;20707;-46
2022/08/12 15:09:15;;;;;;;4.73;2.10;;;29.50;31.30;;;;;;5084299;28;20569;-45
2022/08/12 15:11:42;;;;;;;2.37;1.53;;;29.70;31.80;;;;;;5087990;28;20567;-45
2022/08/12 15:14:25;;;;;;;1.48;1.38;;;29.70;31.60;;;;;;5073720;28;20714;-45
2022/08/12 15:16:53;;;;;;;2.55;1.77;;;29.80;31.00;;;;;;5078703;28;20209;-45
2022/08/12 15:19:20;;;;;;;1.20;1.10;;;29.80;31.10;;;;;;5087400;28;20202;-45
2022/08/12 15:22:06;;;;;;;1.70;1.60;;;29.70;30.70;;;;;;5071344;28;20201;-45